KDFI/DFI METAR and TAF weather

Enter ICAO airport designator
Station Type Date Time Source
KDFI METAR 2019/10/18 05:53 UTC NOAA

KDFI 180553Z AUTO 00000KT 10SM CLR 04/02 A3003 RMK AO2 SLP172 T00390022 10100 20039 53001


Station Type Date Time Source
KDFI Decoded METAR 2019/10/18 05:53 UTC NOAA

DEFIANCE MEMORIAL AIRPORT, OH, United States (KDFI) 41-20N 84-26W 219M
Oct 18, 2019 - 01:53 AM EDT / 2019.10.18 0553 UTC
Wind: Calm:0
Visibility: 10 mile(s):0
Sky conditions: clear
Temperature: 39.0 F (3.9 C)
Dew Point: 36.0 F (2.2 C)
Relative Humidity: 88%
Pressure (altimeter): 30.03 in. Hg (1016 hPa)
Pressure tendency: 0.00 inches (0.1 hPa) higher than three hours ago
ob: KDFI 180553Z AUTO 00000KT 10SM CLR 04/02 A3003 RMK AO2 SLP172 T00390022 10100 20039 53001
cycle: 6

Station Type Date Time Source
KDFI TAF UTC NOAA

Error!

Example: see airport list